»·PEaware :: FDX3650 KSLC-KBOI

FDX3650 :: KSLC-KBOI

FLIGHT INFORMATION

Flight Status: Arrived
Operator:
Federal Express
More flights by this operator :: More flights under this callsign
Pilot: David C. (16084)
Aircraft: BOEING 767-300
(B763)
More flights by this aircraft type
Origin: KSLC Salt Lake City Intl
United States
Destination: KBOI Boise Air Terminal/Gowen
United States
More flights between these airports :: More routes between these airports
Route: CGULL1 TWF BROPH SPUUD3
File this flight plan on PilotEdge
Remarks:
Altitude:
(Current/Filed)
30,000ft
Speed:
(Current/Filed)
461kts
Departed: 17-Sep-20 11:06 AM
Arrived: 17-Sep-20 11:50 AM
Distance/Time
Traveled:
252nm/0:44
Distance/Time
To Go:
Arrived

Flight Plot

Page will automatically refresh every two minutes.

Flight plan parsing failed; only flown route is shown


Map Options




Map Legend


Flown Route
Filed Route
Departure Airport
Arrival Airport
Navaid (VOR, NDB)
Fix

Horizontal Profiles

Position Reports

Time Latitude Longitude Heading Altitude Ground
Speed
17-Sep-20 10:36 40.805343 -111.983380 173 4239ft 0kts
17-Sep-20 10:37 40.805343 -111.983380 173 4239ft 0kts
17-Sep-20 10:38 40.805343 -111.983380 173 4239ft 0kts
17-Sep-20 10:39 40.805343 -111.983380 173 4239ft 0kts
17-Sep-20 10:40 40.805343 -111.983380 174 4239ft 0kts
17-Sep-20 10:41 40.805343 -111.983380 174 4238ft 0kts
17-Sep-20 10:42 40.805343 -111.983380 174 4238ft 0kts
17-Sep-20 10:43 40.805343 -111.983380 174 4238ft 0kts
17-Sep-20 10:44 40.805343 -111.983380 174 4238ft 0kts
17-Sep-20 10:45 40.805343 -111.983380 174 4238ft 0kts
17-Sep-20 10:46 40.805343 -111.983380 174 4238ft 0kts
17-Sep-20 10:47 40.805343 -111.983380 174 4238ft 0kts
17-Sep-20 10:48 40.805343 -111.983380 174 4238ft 0kts
17-Sep-20 10:49 40.805343 -111.983380 174 4238ft 0kts
17-Sep-20 10:50 40.805343 -111.983380 174 4238ft 0kts
17-Sep-20 10:51 40.805343 -111.983380 174 4238ft 0kts
17-Sep-20 10:52 40.805343 -111.983380 173 4238ft 0kts
17-Sep-20 10:53 40.805343 -111.983380 173 4238ft 0kts
17-Sep-20 10:54 40.805343 -111.983380 173 4238ft 0kts
17-Sep-20 10:55 40.805343 -111.983380 174 4238ft 0kts
17-Sep-20 10:57 40.805343 -111.983380 174 4238ft 0kts
17-Sep-20 10:58 40.805553 -111.983422 172 4238ft 2kts
17-Sep-20 10:59 40.805945 -111.983552 153 4238ft 0kts
17-Sep-20 11:00 40.805945 -111.983551 153 4238ft 0kts
17-Sep-20 11:01 40.805945 -111.983551 153 4238ft 0kts
17-Sep-20 11:02 40.805993 -111.982397 69 4238ft 4kts
17-Sep-20 11:03 40.806996 -111.980477 30 4238ft 9kts
17-Sep-20 11:04 40.807400 -111.978870 84 4238ft 0kts
17-Sep-20 11:05 40.806786 -111.976867 171 4238ft 8kts
17-Sep-20 11:06 40.774104 -111.973067 179 4724ft 213kts
17-Sep-20 11:07 40.756531 -112.035889 304 7242ft 252kts
17-Sep-20 11:08 40.802244 -112.112562 315 9307ft 272kts
17-Sep-20 11:09 40.859624 -112.178611 317 11425ft 277kts
17-Sep-20 11:10 40.917920 -112.247089 317 13533ft 284kts
17-Sep-20 11:10 40.967637 -112.305490 317 15288ft 290kts
17-Sep-20 11:12 41.038680 -112.389145 316 17740ft 297kts
17-Sep-20 11:13 41.106387 -112.456494 325 19844ft 320kts
17-Sep-20 11:14 41.184254 -112.524334 320 21897ft 350kts
17-Sep-20 11:14 41.250372 -112.591801 320 23588ft 373kts
17-Sep-20 11:15 41.326709 -112.691098 310 25637ft 396kts
17-Sep-20 11:17 41.415214 -112.821316 308 28011ft 418kts
17-Sep-20 11:17 41.479383 -112.919441 308 29681ft 427kts
17-Sep-20 11:18 41.560062 -113.043301 307 30273ft 465kts
17-Sep-20 11:20 41.662152 -113.200640 307 30202ft 480kts
17-Sep-20 11:20 41.734717 -113.313004 308 30180ft 480kts
17-Sep-20 11:21 41.822037 -113.448788 308 30180ft 481kts
17-Sep-20 11:22 41.909197 -113.584943 308 30179ft 483kts
17-Sep-20 11:23 41.996450 -113.721876 307 30184ft 482kts
17-Sep-20 11:24 42.083234 -113.858702 307 30184ft 481kts
17-Sep-20 11:25 42.170183 -113.996407 307 30181ft 482kts
17-Sep-20 11:26 42.259307 -114.131186 310 30181ft 482kts
17-Sep-20 11:27 42.342061 -114.265835 305 30176ft 452kts
17-Sep-20 11:28 42.421905 -114.396101 306 30166ft 433kts
17-Sep-20 11:29 42.500140 -114.521696 307 28930ft 432kts
17-Sep-20 11:30 42.576646 -114.643779 307 26979ft 421kts
17-Sep-20 11:31 42.651455 -114.763624 306 25178ft 413kts
17-Sep-20 11:32 42.725087 -114.881628 309 23436ft 405kts
17-Sep-20 11:33 42.801867 -114.991420 310 21705ft 397kts
17-Sep-20 11:34 42.877007 -115.099509 310 20018ft 390kts
17-Sep-20 11:35 42.950881 -115.206373 310 18174ft 387kts
17-Sep-20 11:36 43.023825 -115.312423 311 16140ft 380kts
17-Sep-20 11:37 43.095751 -115.417369 311 14019ft 378kts
17-Sep-20 11:38 43.166505 -115.520891 312 12108ft 369kts
17-Sep-20 11:39 43.232894 -115.618137 312 11521ft 322kts
17-Sep-20 11:40 43.294110 -115.704498 315 10207ft 310kts
17-Sep-20 11:41 43.354784 -115.782248 315 9193ft 292kts
17-Sep-20 11:42 43.418812 -115.847040 327 8130ft 274kts
17-Sep-20 11:43 43.459914 -115.916281 292 7321ft 213kts
17-Sep-20 11:44 43.485009 -115.988620 292 6269ft 190kts
17-Sep-20 11:45 43.506992 -116.052417 293 5255ft 177kts
17-Sep-20 11:46 43.527195 -116.111217 294 4332ft 163kts
17-Sep-20 11:47 43.545857 -116.165681 294 3493ft 156kts
17-Sep-20 11:48 43.563720 -116.217979 295 2866ft 107kts
17-Sep-20 11:49 43.568360 -116.228229 99 2853ft 8kts
17-Sep-20 11:50 43.566137 -116.221415 115 2861ft 29kts
17-Sep-20 11:51 43.567305 -116.217362 26 2863ft 14kts
17-Sep-20 11:52 43.566941 -116.216057 197 2865ft 0kts
17-Sep-20 11:53 43.566941 -116.216057 197 2865ft 0kts

Navigation Log

Ident Type
Flight plan parsing failed, navigation log unavailable